Terminal Aerodrome Forecast
Issued by NWS

Home | Current Version | Previous Version | Text Only | Print | Product List | Glossary On
Versions: 1 2 3 4 5 6 7 8 9 10 11 12 13 14 15 16
000
FTUS43 KEAX 181700
TAFMKC
TAF
KMKC 181721Z 1818/1918 08005KT 4SM BR OVC010
      TEMPO 1818/1820 2SM BR OVC008
     FM182000 05002KT 5SM BR OVC015
     FM190400 VRB03KT 2SM BR OVC008=

USA.gov is the U.S. government's official web portal to all federal, state and local government web resources and services.